Time;durP1;ratioP1;P1;durP2;ratioP2;P2;SDS_P1;SDS_P2;PMS_P1;PMS_P2;Temp;Humidity;BMP_temperature;BMP_pressure;BME280_temperature;BME280_humidity;BME280_pressure;Samples;Min_cycle;Max_cycle;Signal;HPM_P1;HPM_P2
2022/06/16 00:02:27;;;;;;;2.55;2.05;;;17.90;73.30;;;;;;6112899;23;95936;-42
2022/06/16 00:04:57;;;;;;;1.70;1.47;;;17.90;73.20;;;;;;6117560;23;95673;-43
2022/06/16 00:07:28;;;;;;;2.03;1.67;;;17.90;73.20;;;;;;6116804;23;95661;-43
2022/06/16 00:10:02;;;;;;;2.08;1.70;;;17.90;73.20;;;;;;6117097;23;95554;-43
2022/06/16 00:12:33;;;;;;;3.95;2.13;;;17.90;73.20;;;;;;6117090;23;95776;-42
2022/06/16 00:15:08;;;;;;;1.83;1.63;;;17.90;73.20;;;;;;6116208;23;95759;-43
2022/06/16 00:17:42;;;;;;;2.75;1.95;;;17.90;73.20;;;;;;6082038;23;95864;-43
2022/06/16 00:20:19;;;;;;;2.03;1.58;;;18.00;73.50;;;;;;6113036;23;95716;-43
2022/06/16 00:22:50;;;;;;;3.45;1.90;;;18.00;73.70;;;;;;6113490;23;95523;-42
2022/06/16 00:25:23;;;;;;;1.95;1.65;;;18.00;73.90;;;;;;6113188;23;96351;-42
2022/06/16 00:27:54;;;;;;;2.20;1.55;;;18.10;67.20;;;;;;6113189;23;95716;-43
2022/06/16 00:30:26;;;;;;;2.92;1.73;;;18.10;73.80;;;;;;6107970;23;95816;-43
2022/06/16 00:32:57;;;;;;;2.22;1.80;;;18.20;73.80;;;;;;6113649;23;95488;-43
2022/06/16 00:35:29;;;;;;;2.53;1.50;;;18.20;73.70;;;;;;6085957;23;96581;-42
2022/06/16 00:38:00;;;;;;;;;;;18.20;73.60;;;;;;6113705;23;95477;-42
2022/06/16 00:40:30;;;;;;;6.30;1.48;;;18.30;73.60;;;;;;6115043;23;95589;-39
2022/06/16 00:43:01;;;;;;;1.65;1.50;;;18.30;73.10;;;;;;6113971;23;95619;-42
2022/06/16 00:45:55;;;;;;;1.95;1.35;;;18.30;61.10;;;;;;6111182;23;96030;-43
2022/06/16 00:48:48;;;;;;;1.88;1.48;;;18.40;73.20;;;;;;6113384;23;101561;-44
2022/06/16 00:51:30;;;;;;;1.75;1.40;;;18.30;73.10;;;;;;6114283;23;95694;-45
2022/06/16 00:54:14;;;;;;;1.80;1.63;;;18.40;72.00;;;;;;6114555;23;96012;-45
2022/06/16 00:56:51;;;;;;;1.65;1.20;;;18.40;66.50;;;;;;6111400;23;98633;-44
2022/06/16 00:59:22;;;;;;;1.40;1.23;;;18.40;71.90;;;;;;6112554;23;95685;-44
2022/06/16 01:01:52;;;;;;;3.83;1.63;;;18.40;71.90;;;;;;6105704;23;96731;-44
2022/06/16 01:05:08;;;;;;;1.10;1.00;;;18.40;71.90;;;;;;6114485;23;95123;-44
2022/06/16 01:07:16;;;;;;;1.63;1.30;;;18.40;71.80;;;;;;6098356;23;96322;-45
2022/06/16 01:09:48;;;;;;;1.40;1.30;;;18.40;71.80;;;;;;6113339;23;96263;-43
2022/06/16 01:15:58;;;;;;;1.80;1.27;;;18.50;71.80;;;;;;6107737;23;95913;-43
2022/06/16 01:19:15;;;;;;;1.85;1.45;;;18.50;71.80;;;;;;6086620;23;97892;-44
2022/06/16 01:21:55;;;;;;;2.22;1.42;;;18.50;61.30;;;;;;6111090;23;95740;-44
2022/06/16 01:24:36;;;;;;;1.83;1.42;;;18.50;71.70;;;;;;6112068;23;96318;-44
2022/06/16 01:27:41;;;;;;;1.55;1.30;;;18.50;71.80;;;;;;6113250;23;95474;-43
2022/06/16 01:30:20;;;;;;;2.80;1.83;;;18.50;71.80;;;;;;6080047;23;96032;-44
2022/06/16 01:33:36;;;;;;;2.33;2.08;;;18.50;71.80;;;;;;6110779;23;102152;-44
2022/06/16 01:36:27;;;;;;;2.45;2.08;;;18.50;71.80;;;;;;6077398;23;95634;-43
2022/06/16 01:39:12;;;;;;;3.10;1.75;;;18.50;71.80;;;;;;6085944;23;95535;-44
2022/06/16 01:42:07;;;;;;;1.70;1.60;;;18.50;71.90;;;;;;6110268;23;95986;-42
2022/06/16 01:44:57;;;;;;;3.38;2.03;;;18.60;72.00;;;;;;6085190;23;95814;-44
2022/06/16 01:47:32;;;;;;;2.45;1.67;;;18.60;71.90;;;;;;6079966;23;95731;-43
2022/06/16 01:50:13;;;;;;;3.13;2.42;;;18.60;64.60;;;;;;6113409;23;95851;-43
2022/06/16 01:52:57;;;;;;;1.97;1.50;;;18.70;71.80;;;;;;6113622;23;95809;-45
2022/06/16 01:55:34;;;;;;;1.40;1.30;;;18.70;71.80;;;;;;6087120;23;97843;-44
2022/06/16 01:58:25;;;;;;;2.38;1.88;;;18.70;71.90;;;;;;6086975;23;95642;-45
2022/06/16 02:01:02;;;;;;;1.80;1.23;;;18.80;72.10;;;;;;6078061;23;95592;-44
2022/06/16 02:03:43;;;;;;;1.98;1.50;;;18.80;72.10;;;;;;6086781;23;95886;-44
2022/06/16 02:06:31;;;;;;;3.40;1.27;;;18.90;72.40;;;;;;6110670;22;96015;-45
2022/06/16 02:09:15;;;;;;;2.55;1.60;;;18.90;72.10;;;;;;6086427;23;95761;-44
2022/06/16 02:11:48;;;;;;;2.03;1.30;;;19.00;72.20;;;;;;6112161;23;95551;-46
2022/06/16 02:14:54;;;;;;;2.08;1.45;;;19.00;72.20;;;;;;6111575;23;96002;-46
2022/06/16 02:17:46;;;;;;;1.27;1.10;;;19.00;72.30;;;;;;6108597;23;102253;-43
2022/06/16 02:20:18;;;;;;;2.33;1.33;;;19.10;72.40;;;;;;6113509;23;95626;-44
2022/06/16 02:22:49;;;;;;;1.27;1.10;;;19.10;72.50;;;;;;6087089;23;95616;-45
2022/06/16 02:25:21;;;;;;;3.50;1.30;;;19.20;72.10;;;;;;6086059;23;96054;-43
2022/06/16 02:27:57;;;;;;;3.22;1.05;;;19.30;60.20;;;;;;6085656;23;96231;-45
2022/06/16 02:30:35;;;;;;;1.48;1.38;;;19.30;71.70;;;;;;6078181;23;95918;-44
2022/06/16 02:33:30;;;;;;;4.20;1.63;;;19.30;71.50;;;;;;6110783;23;95752;-44
2022/06/16 02:36:30;;;;;;;5.13;2.25;;;19.30;71.30;;;;;;6086017;23;98111;-44
2022/06/16 02:39:19;;;;;;;2.30;2.08;;;19.30;70.80;;;;;;6086201;23;95428;-43
2022/06/16 02:42:19;;;;;;;5.55;3.15;;;19.30;70.80;;;;;;6085854;23;95857;-42
2022/06/16 02:45:18;;;;;;;4.05;3.10;;;19.30;71.40;;;;;;6090461;23;95736;-41
2022/06/16 02:48:10;;;;;;;4.68;3.72;;;19.30;70.80;;;;;;6114008;23;103112;-43
2022/06/16 02:51:12;;;;;;;6.20;4.30;;;19.40;70.80;;;;;;6085464;23;95565;-43
2022/06/16 02:57:30;;;;;;;7.55;4.95;;;19.50;70.60;;;;;;6086927;23;95745;-42
2022/06/16 03:00:14;;;;;;;8.15;5.75;;;19.50;70.60;;;;;;5963463;23;95970;-44
2022/06/16 03:02:45;;;;;;;7.15;5.45;;;19.60;70.50;;;;;;5962356;23;101867;-44
2022/06/16 03:05:18;;;;;;;8.80;7.13;;;19.60;70.50;;;;;;6045212;23;96546;-44
2022/06/16 03:07:50;;;;;;;9.18;6.57;;;19.60;70.50;;;;;;6110885;23;95525;-45
2022/06/16 03:13:14;;;;;;;12.52;8.55;;;19.60;70.50;;;;;;6112899;23;95997;-40
2022/06/16 03:15:53;;;;;;;11.15;8.40;;;19.60;70.50;;;;;;6104400;23;95218;-43
2022/06/16 03:18:25;;;;;;;10.35;7.90;;;19.70;70.40;;;;;;6114336;23;96019;-44
2022/06/16 03:20:55;;;;;;;12.80;8.98;;;19.70;70.40;;;;;;6086016;23;96110;-44
2022/06/16 03:23:30;;;;;;;12.40;9.43;;;19.70;70.30;;;;;;6085711;23;96238;-41
2022/06/16 03:26:03;;;;;;;16.02;10.15;;;19.70;70.30;;;;;;6085689;23;95817;-40
2022/06/16 03:28:38;;;;;;;12.95;9.75;;;19.70;70.30;;;;;;6085300;23;95967;-45
2022/06/16 03:31:14;;;;;;;12.10;8.50;;;19.70;70.30;;;;;;6078361;23;98721;-45
2022/06/16 03:33:48;;;;;;;11.52;8.77;;;19.80;70.40;;;;;;6085273;23;95816;-42
2022/06/16 03:36:19;;;;;;;10.05;7.97;;;19.80;70.50;;;;;;6113221;23;95574;-45
2022/06/16 03:38:52;;;;;;;10.48;7.97;;;19.90;70.60;;;;;;6086491;23;95451;-45
2022/06/16 03:41:24;;;;;;;12.63;8.68;;;19.80;69.90;;;;;;6085095;23;96595;-44
2022/06/16 03:43:59;;;;;;;10.95;8.05;;;19.70;70.40;;;;;;6084904;23;96238;-44
2022/06/16 03:46:30;;;;;;;9.63;7.40;;;19.60;70.80;;;;;;6080274;23;97635;-44
2022/06/16 03:49:12;;;;;;;13.13;8.77;;;19.50;71.00;;;;;;6111812;23;95680;-47
2022/06/16 03:51:50;;;;;;;10.35;7.40;;;19.40;71.10;;;;;;6113343;23;95972;-44
2022/06/16 03:54:31;;;;;;;10.15;7.35;;;19.40;71.10;;;;;;6110269;23;95631;-45
2022/06/16 03:57:08;;;;;;;10.93;7.10;;;19.30;71.40;;;;;;6086477;23;95677;-47
2022/06/16 03:59:39;;;;;;;8.00;6.45;;;19.30;59.10;;;;;;6086339;23;95433;-44
2022/06/16 04:02:24;;;;;;;9.50;7.05;;;19.20;71.50;;;;;;6078384;23;96054;-44
2022/06/16 04:04:56;;;;;;;10.00;6.95;;;19.20;71.60;;;;;;6110061;23;96390;-45
2022/06/16 04:07:29;;;;;;;;;;;19.20;71.70;;;;;;6085942;23;95785;-40
2022/06/16 04:10:16;;;;;;;8.57;6.40;;;19.30;71.90;;;;;;6115232;23;95933;-42
2022/06/16 04:12:48;;;;;;;7.47;5.97;;;19.40;71.90;;;;;;6109652;23;96058;-44
2022/06/16 04:15:31;;;;;;;8.30;5.97;;;19.50;71.90;;;;;;6103204;23;98139;-45
2022/06/16 04:18:07;;;;;;;8.65;6.03;;;19.50;71.30;;;;;;6084874;23;95796;-45
2022/06/16 04:20:39;;;;;;;6.20;5.32;;;19.40;71.30;;;;;;6084544;23;95817;-45
2022/06/16 04:23:40;;;;;;;6.25;5.50;;;19.30;71.50;;;;;;6085831;23;96214;-44
2022/06/16 04:26:17;;;;;;;7.75;5.80;;;19.20;71.70;;;;;;6084958;23;95962;-44
2022/06/16 04:28:50;;;;;;;10.50;6.20;;;19.20;71.70;;;;;;6109797;23;95650;-45
2022/06/16 04:31:28;;;;;;;6.53;5.00;;;19.20;71.80;;;;;;6077576;23;95998;-44
2022/06/16 04:33:59;;;;;;;6.55;5.80;;;19.20;71.80;;;;;;6109745;23;98220;-45
2022/06/16 04:36:38;;;;;;;7.50;5.50;;;19.20;71.90;;;;;;6084830;23;95868;-45
2022/06/16 04:39:15;;;;;;;7.43;5.13;;;19.20;71.80;;;;;;6110243;23;95361;-43
2022/06/16 04:41:49;;;;;;;7.57;5.70;;;19.10;71.80;;;;;;6110243;23;95448;-45
2022/06/16 04:44:21;;;;;;;7.93;5.75;;;19.10;71.80;;;;;;6086399;23;98576;-43
2022/06/16 04:46:54;;;;;;;6.70;4.75;;;19.10;72.00;;;;;;6079269;23;97331;-46
2022/06/16 04:49:30;;;;;;;6.60;4.93;;;19.10;71.90;;;;;;6111618;23;95430;-45
2022/06/16 04:52:02;;;;;;;6.55;4.47;;;19.00;72.00;;;;;;6087084;23;96171;-43
2022/06/16 04:54:34;;;;;;;6.78;5.03;;;19.00;72.10;;;;;;6085840;23;98363;-44
2022/06/16 04:57:38;;;;;;;8.27;4.18;;;19.00;72.50;;;;;;6088909;23;95634;-43
2022/06/16 05:00:26;;;;;;;5.82;3.95;;;19.10;72.70;;;;;;6106867;23;95664;-44
2022/06/16 05:03:06;;;;;;;6.05;4.00;;;19.20;72.60;;;;;;6041165;23;95628;-44
2022/06/16 05:05:56;;;;;;;4.97;3.65;;;19.30;72.60;;;;;;6109894;23;98056;-44
2022/06/16 05:08:48;;;;;;;4.72;3.55;;;19.40;72.50;;;;;;6112154;23;95605;-44
2022/06/16 05:11:38;;;;;;;5.20;3.60;;;19.50;72.50;;;;;;6112779;23;95505;-44
2022/06/16 05:14:32;;;;;;;4.07;3.55;;;19.60;72.50;;;;;;6085747;23;95497;-44
2022/06/16 05:17:17;;;;;;;5.10;3.47;;;19.60;72.50;;;;;;6077157;23;96037;-44
2022/06/16 05:20:21;;;;;;;4.25;3.53;;;19.70;72.50;;;;;;6004258;23;95744;-44
2022/06/16 05:23:15;;;;;;;4.53;3.15;;;19.70;72.80;;;;;;6095214;23;95722;-44
2022/06/16 05:26:12;;;;;;;3.17;2.88;;;19.70;72.60;;;;;;6099983;23;95421;-44
2022/06/16 05:29:10;;;;;;;3.95;2.80;;;19.80;72.60;;;;;;6057571;23;95698;-44
2022/06/16 05:32:17;;;;;;;3.78;3.30;;;19.80;72.50;;;;;;6040936;23;96007;-44
2022/06/16 05:35:09;;;;;;;3.63;2.55;;;19.90;72.50;;;;;;6085655;23;95705;-44
2022/06/16 05:38:03;;;;;;;3.03;2.60;;;19.90;72.50;;;;;;6075392;23;95652;-43
2022/06/16 05:41:03;;;;;;;3.45;2.78;;;19.90;72.70;;;;;;6064424;23;95957;-43
2022/06/16 05:44:12;;;;;;;3.40;2.70;;;20.00;72.70;;;;;;6048920;23;95632;-43
2022/06/16 05:47:02;;;;;;;3.60;2.53;;;20.00;72.50;;;;;;6017614;23;95887;-44
2022/06/16 05:49:42;;;;;;;5.07;2.20;;;20.00;71.10;;;;;;6075290;23;95627;-45
2022/06/16 05:52:18;;;;;;;2.72;1.77;;;19.90;71.10;;;;;;6085642;23;97877;-44
2022/06/16 05:55:14;;;;;;;2.70;2.10;;;19.80;71.00;;;;;;6111192;23;95989;-44
2022/06/16 05:57:49;;;;;;;1.77;1.67;;;19.80;70.80;;;;;;6109749;23;95716;-43
2022/06/16 06:00:20;;;;;;;3.72;1.95;;;19.80;70.90;;;;;;6079028;23;95935;-44
2022/06/16 06:03:01;;;;;;;2.25;1.50;;;19.70;70.70;;;;;;6111633;23;102098;-44
2022/06/16 06:05:38;;;;;;;2.70;1.30;;;19.70;70.90;;;;;;6109236;23;95427;-44
2022/06/16 06:17:00;;;;;;;4.93;1.65;;;19.60;70.70;;;;;;6105181;23;95701;-44
2022/06/16 06:19:31;;;;;;;3.72;1.50;;;19.60;70.70;;;;;;6085095;23;95869;-44
2022/06/16 06:22:13;;;;;;;3.90;1.52;;;19.60;70.80;;;;;;6084541;23;95367;-44
2022/06/16 06:24:53;;;;;;;2.22;1.50;;;19.60;71.00;;;;;;6084034;23;96100;-44
2022/06/16 06:27:41;;;;;;;2.85;2.05;;;19.50;68.10;;;;;;6084126;23;96166;-44
2022/06/16 06:30:24;;;;;;;6.03;2.83;;;19.50;71.00;;;;;;6076858;23;95805;-44
2022/06/16 06:32:57;;;;;;;10.07;5.95;;;19.50;71.00;;;;;;6109180;23;95857;-43
2022/06/16 06:35:30;;;;;;;14.60;7.93;;;19.50;71.00;;;;;;6111336;23;96686;-44
2022/06/16 06:38:06;;;;;;;18.00;10.35;;;19.40;71.00;;;;;;6084721;23;97187;-44
2022/06/16 06:40:37;;;;;;;19.10;9.98;;;19.40;71.00;;;;;;6108440;23;95789;-43
2022/06/16 06:43:08;;;;;;;19.83;10.93;;;19.40;71.10;;;;;;6110667;23;95589;-44
2022/06/16 06:45:40;;;;;;;19.00;10.40;;;19.30;71.10;;;;;;6077358;23;98033;-42
2022/06/16 06:48:13;;;;;;;20.33;10.52;;;19.30;71.20;;;;;;6111796;23;95509;-43
2022/06/16 06:50:44;;;;;;;19.10;10.73;;;19.30;71.30;;;;;;6112482;23;95080;-44
2022/06/16 06:53:18;;;;;;;16.63;8.82;;;19.30;71.40;;;;;;6110994;23;95567;-43
2022/06/16 06:55:50;;;;;;;15.68;9.32;;;19.30;71.50;;;;;;6112355;23;95857;-42
2022/06/16 06:58:24;;;;;;;14.10;7.82;;;19.20;71.60;;;;;;6112491;23;95657;-43
2022/06/16 07:00:58;;;;;;;18.63;8.35;;;19.20;71.50;;;;;;6104309;23;95707;-43
2022/06/16 07:03:32;;;;;;;15.88;8.00;;;19.20;71.70;;;;;;6113431;23;95932;-43
2022/06/16 07:06:05;;;;;;;13.23;7.85;;;19.20;71.90;;;;;;6113443;23;95793;-44
2022/06/16 07:08:36;;;;;;;13.35;7.28;;;19.10;71.70;;;;;;6112337;23;95765;-44
2022/06/16 07:11:08;;;;;;;12.55;6.95;;;19.10;71.90;;;;;;6113143;23;95094;-43
2022/06/16 07:13:40;;;;;;;12.20;6.28;;;19.10;71.90;;;;;;6113518;23;96164;-43
2022/06/16 07:16:12;;;;;;;10.85;6.43;;;19.20;72.00;;;;;;6104430;23;96539;-42
2022/06/16 07:18:45;;;;;;;10.77;6.63;;;19.20;72.00;;;;;;6111965;23;95626;-43
2022/06/16 07:21:17;;;;;;;9.30;5.55;;;19.20;72.00;;;;;;6113090;23;95688;-44
2022/06/16 07:23:49;;;;;;;6.93;4.38;;;19.30;72.20;;;;;;6113253;23;95872;-45
2022/06/16 07:26:21;;;;;;;8.73;4.85;;;19.30;72.00;;;;;;6112283;23;95693;-43
2022/06/16 07:28:55;;;;;;;9.90;5.82;;;19.30;72.20;;;;;;6111822;23;95459;-41
2022/06/16 07:31:29;;;;;;;10.18;4.53;;;19.30;64.10;;;;;;6104490;23;95589;-40
2022/06/16 07:34:05;;;;;;;8.55;4.40;;;19.30;72.00;;;;;;6112921;23;95714;-43
2022/06/16 07:36:36;;;;;;;8.13;4.40;;;19.30;72.10;;;;;;6112380;23;96828;-43
2022/06/16 07:39:06;;;;;;;;;;;19.30;72.10;;;;;;6110528;23;95639;-42
2022/06/16 07:41:37;;;;;;;11.93;4.72;;;19.30;72.00;;;;;;6114301;23;95407;-41
2022/06/16 07:44:12;;;;;;;7.80;4.07;;;19.30;72.00;;;;;;6113159;23;95296;-43
2022/06/16 07:46:46;;;;;;;7.78;4.30;;;19.40;71.80;;;;;;6106018;23;96404;-44
2022/06/16 07:49:27;;;;;;;5.40;3.42;;;19.40;71.90;;;;;;6113843;23;95689;-43
2022/06/16 07:52:00;;;;;;;6.75;3.58;;;19.40;71.90;;;;;;6114243;23;95180;-44
2022/06/16 07:54:32;;;;;;;8.82;4.28;;;19.40;71.70;;;;;;6112877;23;95501;-43
2022/06/16 07:57:22;;;;;;;6.35;3.35;;;19.40;71.70;;;;;;6113875;23;96355;-44
2022/06/16 07:59:59;;;;;;;6.05;3.28;;;19.40;71.50;;;;;;6112146;23;95574;-44
2022/06/16 08:02:29;;;;;;;5.47;3.47;;;19.30;71.50;;;;;;6081316;23;95530;-44
2022/06/16 08:04:59;;;;;;;7.32;2.95;;;19.30;71.50;;;;;;6113268;23;95769;-43
2022/06/16 08:07:31;;;;;;;5.88;2.90;;;19.30;71.50;;;;;;6085068;23;98492;-43
2022/06/16 08:10:04;;;;;;;4.43;2.80;;;19.30;71.50;;;;;;6111809;23;95859;-46
2022/06/16 08:12:37;;;;;;;3.83;2.60;;;19.30;72.20;;;;;;6112205;23;95739;-44
2022/06/16 08:15:09;;;;;;;5.25;3.03;;;19.30;71.60;;;;;;6113211;23;95587;-44
2022/06/16 08:17:49;;;;;;;4.20;2.65;;;19.30;71.60;;;;;;6105589;23;95759;-36
2022/06/16 08:20:23;;;;;;;5.28;2.88;;;19.30;71.70;;;;;;6112514;23;95534;-36
2022/06/16 08:23:01;;;;;;;6.15;2.60;;;19.30;71.70;;;;;;6113277;23;95647;-36
2022/06/16 08:25:33;;;;;;;4.10;2.60;;;19.30;71.70;;;;;;6112917;23;95676;-36
2022/06/16 08:28:08;;;;;;;6.45;2.65;;;19.30;71.60;;;;;;6112247;23;95972;-36
2022/06/16 08:30:44;;;;;;;3.72;2.67;;;19.40;71.70;;;;;;6104134;23;96251;-36
2022/06/16 08:33:18;;;;;;;4.68;2.78;;;19.40;71.70;;;;;;6112782;23;95094;-36
2022/06/16 08:35:50;;;;;;;5.40;3.90;;;19.40;71.60;;;;;;6112735;23;95726;-36
2022/06/16 08:38:21;;;;;;;9.63;5.22;;;19.40;71.50;;;;;;6111840;23;96271;-36
2022/06/16 08:41:12;;;;;;;7.85;4.78;;;19.40;71.60;;;;;;6112232;23;95353;-36
2022/06/16 08:44:10;;;;;;;9.68;6.72;;;19.50;71.60;;;;;;6112765;23;95853;-44
2022/06/16 08:47:04;;;;;;;11.02;7.38;;;19.50;71.60;;;;;;6104939;23;95764;-44
2022/06/16 08:49:56;;;;;;;8.80;6.28;;;19.40;71.60;;;;;;6113466;23;96645;-44
2022/06/16 08:52:38;;;;;;;;;;;19.40;71.60;;;;;;6113924;23;95871;-44
2022/06/16 08:55:45;;;;;;;9.10;6.82;;;19.50;71.60;;;;;;6115350;23;95759;-44
2022/06/16 08:58:35;;;;;;;8.80;5.90;;;19.50;71.60;;;;;;6110256;23;95637;-44
2022/06/16 09:01:23;;;;;;;8.88;6.57;;;19.50;71.60;;;;;;6104678;23;96963;-44
2022/06/16 09:04:08;;;;;;;7.30;5.18;;;19.50;71.60;;;;;;6112344;23;96274;-44
2022/06/16 09:06:58;;;;;;;8.82;5.72;;;19.50;71.60;;;;;;6112866;23;95209;-44
2022/06/16 09:12:58;;;;;;;8.35;6.13;;;19.60;71.60;;;;;;6111600;23;95829;-44
2022/06/16 09:15:53;;;;;;;6.22;4.75;;;19.60;71.50;;;;;;6105260;23;98764;-44
2022/06/16 09:18:44;;;;;;;7.10;4.72;;;19.60;71.50;;;;;;6111559;23;95652;-45
2022/06/16 09:21:46;;;;;;;9.25;5.50;;;19.60;71.50;;;;;;6113046;23;95888;-45
2022/06/16 09:24:59;;;;;;;6.97;4.78;;;19.60;71.50;;;;;;6111676;23;95999;-44
2022/06/16 09:28:05;;;;;;;7.18;4.95;;;19.60;71.40;;;;;;6111570;23;96056;-43
2022/06/16 09:30:41;;;;;;;7.00;3.67;;;19.60;71.40;;;;;;6099294;23;95728;-44
2022/06/16 09:33:26;;;;;;;5.25;3.85;;;19.60;71.30;;;;;;6112183;23;95688;-44
2022/06/16 09:36:24;;;;;;;5.85;4.18;;;19.70;71.40;;;;;;6112233;23;95843;-45
2022/06/16 09:39:23;;;;;;;5.53;4.22;;;19.60;71.30;;;;;;6111810;23;95758;-44
2022/06/16 09:42:35;;;;;;;7.47;4.55;;;19.60;71.30;;;;;;6111595;23;95447;-44
2022/06/16 09:45:15;;;;;;;5.25;4.18;;;19.60;71.20;;;;;;6085628;23;95767;-45
2022/06/16 09:47:53;;;;;;;7.28;4.47;;;19.60;71.30;;;;;;6111312;23;95963;-44
2022/06/16 09:50:53;;;;;;;5.43;4.07;;;19.50;71.40;;;;;;6111528;23;95530;-44
2022/06/16 09:53:41;;;;;;;6.30;4.30;;;19.50;71.40;;;;;;6111808;23;95566;-44
2022/06/16 09:56:50;;;;;;;6.30;4.70;;;19.50;71.60;;;;;;6113106;23;95578;-44
2022/06/16 09:59:48;;;;;;;6.53;4.47;;;19.40;71.80;;;;;;6111040;23;96391;-44
2022/06/16 10:02:26;;;;;;;8.15;4.95;;;19.30;71.80;;;;;;6081149;23;95599;-44
2022/06/16 10:04:57;;;;;;;6.75;4.60;;;19.30;71.90;;;;;;6112250;23;95641;-44
2022/06/16 10:07:38;;;;;;;5.63;3.97;;;19.30;72.00;;;;;;6111717;23;95604;-45
2022/06/16 10:10:20;;;;;;;6.97;4.57;;;19.30;72.10;;;;;;6111577;23;95806;-44
2022/06/16 10:13:09;;;;;;;4.53;4.03;;;19.20;72.20;;;;;;6111539;23;95736;-44
2022/06/16 10:16:04;;;;;;;7.35;4.60;;;19.20;72.20;;;;;;6106256;23;95507;-44
2022/06/16 10:18:35;;;;;;;4.55;3.60;;;19.20;72.30;;;;;;6112347;23;95470;-44
2022/06/16 10:21:08;;;;;;;5.57;3.95;;;19.20;72.20;;;;;;6086053;23;95908;-44
2022/06/16 10:23:54;;;;;;;5.13;4.07;;;19.20;72.20;;;;;;6111421;23;95787;-44
2022/06/16 10:26:28;;;;;;;4.15;3.60;;;19.30;72.40;;;;;;6111376;23;95488;-44
2022/06/16 10:29:14;;;;;;;4.88;3.83;;;19.30;72.30;;;;;;6112401;23;95569;-45
2022/06/16 10:31:48;;;;;;;4.07;3.58;;;19.30;72.30;;;;;;6102623;23;95789;-44
2022/06/16 10:34:39;;;;;;;7.35;4.30;;;19.30;72.30;;;;;;6111732;23;96384;-44
2022/06/16 10:37:26;;;;;;;4.85;3.58;;;19.30;72.20;;;;;;6111704;23;95497;-44
2022/06/16 10:40:18;;;;;;;3.70;3.38;;;19.30;69.10;;;;;;6112141;23;95461;-44
2022/06/16 10:42:51;;;;;;;3.88;3.15;;;19.30;72.20;;;;;;6110808;23;96320;-44
2022/06/16 10:45:30;;;;;;;4.20;3.22;;;19.30;72.20;;;;;;6105529;23;95595;-44
2022/06/16 10:48:34;;;;;;;4.43;3.47;;;19.30;72.20;;;;;;6112867;23;95399;-44
2022/06/16 10:51:17;;;;;;;3.30;2.72;;;19.30;72.00;;;;;;6111438;23;96203;-44
2022/06/16 10:54:13;;;;;;;4.38;3.30;;;19.30;72.10;;;;;;6084572;23;96562;-44
2022/06/16 10:56:49;;;;;;;3.55;3.00;;;19.30;72.00;;;;;;6111468;23;95725;-44
2022/06/16 10:59:26;;;;;;;3.75;3.05;;;19.30;72.00;;;;;;6111580;23;95580;-46
2022/06/16 11:02:23;;;;;;;3.78;2.55;;;19.30;71.90;;;;;;6104786;23;95771;-44
2022/06/16 11:05:06;;;;;;;5.00;3.13;;;19.30;72.20;;;;;;6111330;23;96696;-43
2022/06/16 11:07:45;;;;;;;3.05;2.25;;;19.40;72.50;;;;;;6111839;23;95411;-44
2022/06/16 11:10:36;;;;;;;4.82;3.20;;;19.30;72.40;;;;;;6112008;23;95660;-45
2022/06/16 11:13:15;;;;;;;3.72;2.70;;;19.40;72.40;;;;;;6111641;23;95752;-45
2022/06/16 11:15:52;;;;;;;10.65;3.15;;;19.40;72.20;;;;;;6104059;23;95732;-35
2022/06/16 11:18:28;;;;;;;6.85;2.83;;;19.40;72.80;;;;;;6085552;23;95963;-34
2022/06/16 11:21:25;;;;;;;6.65;3.03;;;19.50;72.80;;;;;;6111671;23;95757;-34
2022/06/16 11:24:00;;;;;;;7.18;3.35;;;19.50;73.00;;;;;;6110101;23;95543;-37
2022/06/16 11:26:45;;;;;;;7.07;3.33;;;19.50;73.10;;;;;;6109149;23;96369;-41
2022/06/16 11:29:32;;;;;;;4.60;2.88;;;19.50;73.00;;;;;;6111691;23;96090;-44
2022/06/16 11:32:17;;;;;;;5.40;2.63;;;19.60;73.10;;;;;;6106522;23;96026;-44
2022/06/16 11:34:48;;;;;;;5.22;2.35;;;19.60;73.20;;;;;;6112734;23;95201;-45
2022/06/16 11:37:37;;;;;;;6.47;2.60;;;19.70;73.10;;;;;;6111437;23;96063;-44
2022/06/16 11:40:36;;;;;;;3.55;2.38;;;19.60;73.20;;;;;;6111313;23;95576;-43
2022/06/16 11:43:42;;;;;;;4.03;2.67;;;19.70;73.20;;;;;;6057230;23;96068;-42
2022/06/16 11:46:25;;;;;;;6.93;2.78;;;19.70;73.10;;;;;;5955621;23;95598;-41
2022/06/16 11:49:14;;;;;;;2.78;2.10;;;19.70;73.00;;;;;;6102991;23;95862;-45
2022/06/16 11:51:57;;;;;;;2.85;2.60;;;19.80;69.30;;;;;;6111668;23;95896;-43
2022/06/16 11:54:59;;;;;;;3.97;2.53;;;19.80;73.30;;;;;;6112106;23;95454;-41
2022/06/16 11:57:47;;;;;;;3.83;2.28;;;19.80;73.50;;;;;;6113595;23;95450;-44
2022/06/16 12:00:36;;;;;;;2.88;2.55;;;19.90;73.30;;;;;;6104788;23;96330;-43
2022/06/16 12:03:45;;;;;;;2.90;2.10;;;19.90;73.30;;;;;;6111943;23;95738;-40
2022/06/16 12:06:42;;;;;;;6.53;2.78;;;20.00;71.00;;;;;;6111652;23;95656;-42
2022/06/16 12:09:38;;;;;;;2.90;2.58;;;20.00;73.30;;;;;;6113530;23;95726;-42
2022/06/16 12:12:36;;;;;;;4.43;3.38;;;20.00;73.20;;;;;;6111046;23;96006;-44
2022/06/16 12:15:18;;;;;;;3.17;2.78;;;20.00;72.10;;;;;;6105329;23;95976;-43
2022/06/16 12:18:18;;;;;;;5.55;3.40;;;19.90;71.50;;;;;;6111571;23;95782;-45
2022/06/16 12:21:18;;;;;;;6.38;5.38;;;19.90;71.40;;;;;;6109371;23;95834;-44
2022/06/16 12:23:53;;;;;;;;;;;19.90;71.30;;;;;;6111673;23;96502;-44
2022/06/16 12:26:36;;;;;;;4.93;4.43;;;19.90;71.40;;;;;;6112377;23;95480;-44
2022/06/16 12:29:24;;;;;;;4.88;4.07;;;19.80;71.00;;;;;;6111044;23;95554;-44
2022/06/16 12:32:29;;;;;;;4.70;3.50;;;19.80;71.10;;;;;;6105100;23;96211;-44
2022/06/16 12:35:18;;;;;;;5.28;3.65;;;19.80;71.10;;;;;;6009755;23;96029;-46
2022/06/16 12:38:11;;;;;;;4.95;3.15;;;19.70;71.00;;;;;;6111438;23;95612;-43
2022/06/16 12:40:52;;;;;;;3.10;2.83;;;19.70;71.00;;;;;;6111487;23;95733;-44
2022/06/16 12:43:26;;;;;;;5.73;3.90;;;19.70;70.80;;;;;;6112024;23;95923;-44
2022/06/16 12:46:08;;;;;;;4.80;3.70;;;19.70;70.90;;;;;;6104347;23;96629;-42
2022/06/16 12:49:10;;;;;;;5.97;3.72;;;19.70;70.40;;;;;;6112622;23;95724;-44
2022/06/16 12:51:55;;;;;;;4.22;3.45;;;19.70;70.20;;;;;;6113189;23;95506;-43
2022/06/16 12:54:47;;;;;;;4.20;3.28;;;19.60;70.20;;;;;;6112574;23;95241;-45
2022/06/16 12:57:30;;;;;;;6.93;4.15;;;19.60;70.30;;;;;;6112964;23;96376;-43
2022/06/16 13:00:13;;;;;;;3.90;3.25;;;19.50;70.30;;;;;;6112253;23;95397;-43
2022/06/16 13:03:14;;;;;;;4.72;4.25;;;19.50;70.40;;;;;;6105033;23;97139;-43
2022/06/16 13:05:46;;;;;;;7.03;4.23;;;19.40;70.30;;;;;;6113410;23;95221;-44
2022/06/16 13:08:18;;;;;;;5.30;3.60;;;19.40;70.40;;;;;;6085585;23;96395;-45
2022/06/16 13:10:58;;;;;;;5.90;3.53;;;19.40;70.40;;;;;;6111471;23;95814;-45
2022/06/16 13:13:38;;;;;;;3.97;3.42;;;19.30;70.50;;;;;;6112226;23;95581;-43
2022/06/16 13:16:19;;;;;;;5.03;3.55;;;19.30;70.50;;;;;;6103708;23;95643;-45
2022/06/16 13:19:21;;;;;;;4.88;3.25;;;19.30;70.60;;;;;;6111628;23;96696;-44
2022/06/16 13:22:04;;;;;;;4.97;3.58;;;19.30;70.60;;;;;;6092871;23;95754;-44
2022/06/16 13:24:53;;;;;;;3.40;2.95;;;19.20;70.70;;;;;;6111646;23;95830;-45
2022/06/16 13:27:40;;;;;;;5.22;3.95;;;19.20;70.70;;;;;;6111642;23;95504;-44
2022/06/16 13:30:10;;;;;;;3.75;3.20;;;19.10;70.70;;;;;;6106867;23;96361;-44
2022/06/16 13:32:52;;;;;;;3.72;3.13;;;19.10;70.70;;;;;;6110895;23;102435;-43
2022/06/16 13:35:22;;;;;;;6.72;3.58;;;19.10;70.80;;;;;;6112156;23;95674;-44
2022/06/16 13:38:06;;;;;;;4.97;3.55;;;19.10;70.80;;;;;;6112887;23;95348;-44
2022/06/16 13:40:39;;;;;;;4.55;3.63;;;19.10;70.90;;;;;;6111606;23;96453;-44
2022/06/16 13:43:18;;;;;;;4.38;3.53;;;19.00;70.10;;;;;;6111363;23;95864;-44
2022/06/16 13:46:03;;;;;;;7.30;3.75;;;19.00;70.90;;;;;;6105506;23;95882;-44
2022/06/16 13:48:45;;;;;;;4.70;3.25;;;18.90;71.00;;;;;;6113639;23;95614;-44
2022/06/16 13:51:45;;;;;;;3.47;3.10;;;18.90;70.80;;;;;;6112376;23;96590;-44
2022/06/16 13:54:28;;;;;;;4.88;3.28;;;18.90;71.10;;;;;;6112654;23;95759;-44
2022/06/16 13:57:27;;;;;;;3.28;2.63;;;18.90;71.10;;;;;;6113943;23;96686;-43
2022/06/16 14:00:05;;;;;;;4.80;3.42;;;18.80;71.10;;;;;;6113288;23;95546;-44
2022/06/16 14:03:02;;;;;;;2.95;2.65;;;18.80;71.10;;;;;;6105974;23;96035;-44
2022/06/16 14:05:35;;;;;;;2.90;2.55;;;18.80;71.20;;;;;;6111877;23;96166;-44
2022/06/16 14:08:14;;;;;;;4.22;3.28;;;18.80;71.20;;;;;;6112589;23;95560;-45
2022/06/16 14:11:12;;;;;;;3.28;2.97;;;18.80;65.80;;;;;;6113365;23;95655;-44
2022/06/16 14:14:07;;;;;;;3.55;3.00;;;18.70;71.30;;;;;;6112617;23;95934;-44
2022/06/16 14:16:40;;;;;;;3.58;3.15;;;18.60;71.40;;;;;;6105258;23;95701;-44
2022/06/16 14:19:22;;;;;;;3.72;3.15;;;18.70;71.50;;;;;;6116479;23;95695;-41
2022/06/16 14:22:00;;;;;;;3.67;2.90;;;18.60;71.40;;;;;;6117647;23;95415;-41
2022/06/16 14:24:47;;;;;;;4.13;3.17;;;18.50;71.50;;;;;;6117315;23;96093;-42
2022/06/16 14:27:36;;;;;;;3.30;2.70;;;18.50;71.80;;;;;;6117372;23;95902;-41